createdAt,value
2022-08-04T00:00:19.605Z,101238.03
2022-08-04T00:03:02.951Z,101241.75
2022-08-04T00:05:48.679Z,101236.06
2022-08-04T00:08:34.413Z,101235.81
2022-08-04T00:11:05.461Z,101242.53
2022-08-04T00:13:54.263Z,101236.94
2022-08-04T00:16:42.308Z,101232.88
2022-08-04T00:19:18.952Z,101240.88
2022-08-04T00:22:01.546Z,101249.63
2022-08-04T00:24:31.018Z,101244.88
2022-08-04T00:26:58.582Z,101242.97
2022-08-04T00:29:30.170Z,101243.81
2022-08-04T00:32:05.376Z,101252.03
2022-08-04T00:34:36.957Z,101252.84
2022-08-04T00:37:06.718Z,101251.78
2022-08-04T00:39:41.124Z,101241.44
2022-08-04T00:42:23.964Z,101244.25
2022-08-04T00:45:31.498Z,101246.63
2022-08-04T00:48:30.512Z,101251.97
2022-08-04T00:51:13.719Z,101240.09
2022-08-04T00:53:58.043Z,101230.63
2022-08-04T00:56:57.964Z,101238.22
2022-08-04T01:00:03.462Z,101249.88
2022-08-04T01:02:52.006Z,101243.19
2022-08-04T01:05:38.414Z,101240.75
2022-08-04T01:08:46.437Z,101238.88
2022-08-04T01:11:56.509Z,101243.69
2022-08-04T01:14:53.108Z,101240.81
2022-08-04T01:17:42.507Z,101239.00
2022-08-04T01:20:16.185Z,101223.16
2022-08-04T01:23:19.811Z,101222.25
2022-08-04T01:25:53.298Z,101231.94
2022-08-04T01:28:47.501Z,101217.09
2022-08-04T01:31:26.984Z,101214.34
2022-08-04T01:34:03.950Z,101219.59
2022-08-04T01:36:35.939Z,101214.25
2022-08-04T01:39:24.878Z,101217.75
2022-08-04T01:41:58.291Z,101217.81
2022-08-04T01:44:35.665Z,101219.03
2022-08-04T01:47:07.470Z,101213.53
2022-08-04T01:49:40.340Z,101218.13
2022-08-04T01:52:10.742Z,101219.19
2022-08-04T01:54:41.658Z,101218.31
2022-08-04T01:57:37.540Z,101210.53
2022-08-04T02:00:00.344Z,101216.28
2022-08-04T02:02:28.030Z,101213.66
2022-08-04T02:04:56.220Z,101207.44
2022-08-04T02:07:52.702Z,101220.97
2022-08-04T02:10:27.508Z,101212.19
2022-08-04T02:13:24.716Z,101219.34
2022-08-04T02:16:20.008Z,101223.03
2022-08-04T02:19:14.832Z,101222.09
2022-08-04T02:21:43.010Z,101210.81
2022-08-04T02:24:15.481Z,101219.47
2022-08-04T02:26:47.810Z,101211.59
2022-08-04T02:29:46.971Z,101220.50
2022-08-04T02:32:28.322Z,101218.81
2022-08-04T02:35:04.802Z,101222.47
2022-08-04T02:37:35.434Z,101216.34
2022-08-04T02:40:10.405Z,101215.47
2022-08-04T02:42:41.445Z,101213.66
2022-08-04T02:45:14.052Z,101214.53
2022-08-04T02:48:28.823Z,101216.25
2022-08-04T02:50:40.697Z,101210.34
2022-08-04T02:53:13.444Z,101211.06
2022-08-04T02:55:51.013Z,101209.31
2022-08-04T02:58:23.279Z,101215.53
2022-08-04T03:01:26.082Z,101212.88
2022-08-04T03:04:05.167Z,101217.53
2022-08-04T03:07:20.056Z,101219.53
2022-08-04T03:10:15.229Z,101216.88
2022-08-04T03:12:58.751Z,101223.28
2022-08-04T03:16:12.211Z,101224.56
2022-08-04T03:19:28.902Z,101229.03
2022-08-04T03:22:28.281Z,101223.16
2022-08-04T03:25:55.816Z,101220.84
2022-08-04T03:28:55.636Z,101220.13
2022-08-04T03:31:51.602Z,101227.78
2022-08-04T03:35:03.758Z,101234.03
2022-08-04T03:38:10.178Z,101227.06
2022-08-04T03:41:06.679Z,101229.94
2022-08-04T03:44:04.476Z,101230.22
2022-08-04T03:46:49.910Z,101232.22
2022-08-04T03:49:41.318Z,101238.16
2022-08-04T03:52:48.974Z,101231.53
2022-08-04T03:55:40.141Z,101240.28
2022-08-04T03:58:17.862Z,101237.66
2022-08-04T04:01:06.749Z,101236.94
2022-08-04T04:04:02.549Z,101237.91
2022-08-04T04:06:54.318Z,101243.13
2022-08-04T04:09:58.056Z,101237.91
2022-08-04T04:13:01.065Z,101243.22
2022-08-04T04:16:09.613Z,101241.66
2022-08-04T04:18:55.277Z,101250.47
2022-08-04T04:21:35.528Z,101248.06
2022-08-04T04:24:48.756Z,101255.13
2022-08-04T04:27:40.852Z,101248.75
2022-08-04T04:30:26.391Z,101249.47
2022-08-04T04:33:05.836Z,101259.34
2022-08-04T04:35:50.829Z,101261.50
2022-08-04T04:38:34.361Z,101258.00
2022-08-04T04:41:24.426Z,101255.50
2022-08-04T04:44:34.846Z,101250.22
2022-08-04T04:47:10.346Z,101264.63
2022-08-04T04:50:14.838Z,101260.78
2022-08-04T04:52:44.878Z,101255.31
2022-08-04T04:55:48.085Z,101254.63
2022-08-04T04:58:26.450Z,101263.44
2022-08-04T05:01:12.275Z,101262.44
2022-08-04T05:04:30.484Z,101261.59
2022-08-04T05:07:32.142Z,101260.72
2022-08-04T05:10:27.228Z,101268.84
2022-08-04T05:14:34.836Z,101273.09
2022-08-04T05:16:17.752Z,101268.84
2022-08-04T05:18:50.152Z,101278.44
2022-08-04T05:21:28.434Z,101270.44
2022-08-04T05:24:03.007Z,101276.31
2022-08-04T05:26:46.729Z,101271.91
2022-08-04T05:29:19.389Z,101276.38
2022-08-04T05:31:53.634Z,101278.91
2022-08-04T05:34:36.580Z,101277.78
2022-08-04T05:37:10.766Z,101286.25
2022-08-04T05:40:00.032Z,101286.31
2022-08-04T05:42:29.830Z,101289.19
2022-08-04T05:45:01.578Z,101287.19
2022-08-04T05:47:38.813Z,101296.25
2022-08-04T05:50:17.093Z,101295.31
2022-08-04T05:53:01.509Z,101294.47
2022-08-04T05:55:48.746Z,101297.13
2022-08-04T05:58:32.190Z,101296.31
2022-08-04T06:01:02.391Z,101299.31
2022-08-04T06:03:38.959Z,101301.91
2022-08-04T06:06:13.860Z,101303.47
2022-08-04T06:08:48.241Z,101309.59
2022-08-04T06:11:22.440Z,101308.72
2022-08-04T06:14:06.541Z,101307.88
2022-08-04T06:16:51.160Z,101304.94
2022-08-04T06:19:59.551Z,101303.06
2022-08-04T06:22:15.837Z,101303.94
2022-08-04T06:24:49.882Z,101310.06
2022-08-04T06:27:32.188Z,101311.72
2022-08-04T06:30:10.258Z,101302.44
2022-08-04T06:32:53.135Z,101311.13
2022-08-04T06:35:43.409Z,101304.53
2022-08-04T06:38:15.161Z,101302.84
2022-08-04T06:40:51.542Z,101300.72
2022-08-04T06:43:24.093Z,101299.78
2022-08-04T06:46:00.749Z,101302.31
2022-08-04T06:48:36.864Z,101304.06
2022-08-04T06:51:30.472Z,101306.44
2022-08-04T06:54:06.199Z,101305.25
2022-08-04T06:56:41.389Z,101299.91
2022-08-04T06:59:19.908Z,101306.97
2022-08-04T07:02:09.850Z,101305.56
2022-08-04T07:04:38.931Z,101317.97
2022-08-04T07:07:12.503Z,101321.59
2022-08-04T07:09:45.757Z,101312.38
2022-08-04T07:12:14.444Z,101318.59
2022-08-04T07:14:49.069Z,101317.44
2022-08-04T07:17:34.972Z,101319.97
2022-08-04T07:20:11.044Z,101317.19
2022-08-04T07:22:49.488Z,101316.84
2022-08-04T07:25:23.485Z,101324.59
2022-08-04T07:28:12.380Z,101323.06
2022-08-04T07:30:43.665Z,101328.00
2022-08-04T07:33:13.485Z,101323.50
2022-08-04T07:36:05.986Z,101329.50
2022-08-04T07:38:32.332Z,101326.38
2022-08-04T07:41:01.962Z,101324.66
2022-08-04T07:43:32.176Z,101320.81
2022-08-04T07:46:00.537Z,101325.00
2022-08-04T07:48:30.537Z,101327.34
2022-08-04T07:51:02.457Z,101335.31
2022-08-04T07:53:55.529Z,101329.47
2022-08-04T07:56:26.618Z,101331.69
2022-08-04T07:58:55.589Z,101335.16
2022-08-04T08:01:26.946Z,101339.69
2022-08-04T08:03:59.128Z,101334.59
2022-08-04T08:06:32.027Z,101331.53
2022-08-04T08:09:14.322Z,101332.84
2022-08-04T08:12:36.765Z,101332.72
2022-08-04T08:14:37.839Z,101339.34
2022-08-04T08:17:08.877Z,101339.34
2022-08-04T08:19:48.355Z,101334.00
2022-08-04T08:22:18.237Z,101339.81
2022-08-04T08:24:51.273Z,101342.00
2022-08-04T08:27:24.052Z,101340.66
2022-08-04T08:30:04.581Z,101335.72
2022-08-04T08:32:32.353Z,101333.16
2022-08-04T08:35:03.902Z,101335.03
2022-08-04T08:37:43.903Z,101335.56
2022-08-04T08:41:02.401Z,101333.03
2022-08-04T08:44:09.748Z,101339.34
2022-08-04T08:47:22.881Z,101335.75
2022-08-04T08:50:04.587Z,101332.22
2022-08-04T08:53:03.312Z,101336.84
2022-08-04T08:55:52.654Z,101337.09
2022-08-04T08:58:33.073Z,101332.41
2022-08-04T09:01:31.840Z,101333.16
2022-08-04T09:04:23.713Z,101328.03
2022-08-04T09:07:13.955Z,101334.09
2022-08-04T09:09:47.280Z,101334.16
2022-08-04T09:12:39.930Z,101336.53
2022-08-04T09:15:30.204Z,101325.56
2022-08-04T09:18:34.147Z,101330.97
2022-08-04T09:21:35.415Z,101339.44
2022-08-04T09:24:35.458Z,101335.22
2022-08-04T09:27:14.824Z,101329.84
2022-08-04T09:30:04.080Z,101337.88
2022-08-04T09:33:06.358Z,101342.28
2022-08-04T09:36:37.547Z,101343.38
2022-08-04T09:39:18.258Z,101332.13
2022-08-04T09:42:30.937Z,101342.88
2022-08-04T09:45:19.571Z,101343.28
2022-08-04T09:48:36.065Z,101342.53
2022-08-04T09:51:58.329Z,101344.41
2022-08-04T09:54:45.961Z,101346.25
2022-08-04T09:57:51.881Z,101349.28
2022-08-04T10:00:40.465Z,101347.47
2022-08-04T10:03:26.797Z,101338.53
2022-08-04T10:06:20.702Z,101343.00
2022-08-04T10:09:05.893Z,101346.03
2022-08-04T10:12:19.738Z,101340.88
2022-08-04T10:15:44.472Z,101356.66
2022-08-04T10:18:20.609Z,101349.75
2022-08-04T10:21:08.031Z,101340.69
2022-08-04T10:24:16.248Z,101349.41
2022-08-04T10:27:07.589Z,101345.97
2022-08-04T10:30:01.726Z,101345.72
2022-08-04T10:32:59.328Z,101344.84
2022-08-04T10:35:48.089Z,101333.88
2022-08-04T10:38:33.666Z,101344.84
2022-08-04T10:41:32.060Z,101336.25
2022-08-04T10:44:42.186Z,101338.75
2022-08-04T10:47:23.181Z,101334.91
2022-08-04T10:50:01.986Z,101334.03
2022-08-04T10:52:45.230Z,101333.47
2022-08-04T10:55:21.681Z,101325.09
2022-08-04T10:58:14.711Z,101329.66
2022-08-04T11:00:46.472Z,101333.34
2022-08-04T11:03:34.243Z,101326.13
2022-08-04T11:06:04.050Z,101329.72
2022-08-04T11:08:36.634Z,101330.19
2022-08-04T11:12:01.798Z,101334.09
2022-08-04T11:14:38.849Z,101324.75
2022-08-04T11:17:23.444Z,101325.81
2022-08-04T11:20:33.986Z,101324.44
2022-08-04T11:23:14.331Z,101332.59
2022-08-04T11:25:54.868Z,101319.72
2022-08-04T11:29:03.383Z,101330.84
2022-08-04T11:31:35.889Z,101326.56
2022-08-04T11:34:12.562Z,101324.53
2022-08-04T11:37:21.087Z,101319.63
2022-08-04T11:40:12.925Z,101327.94
2022-08-04T11:42:50.358Z,101329.22
2022-08-04T11:45:25.250Z,101318.28
2022-08-04T11:48:04.525Z,101325.31
2022-08-04T11:50:53.221Z,101319.19
2022-08-04T11:53:24.949Z,101319.84
2022-08-04T11:56:07.940Z,101322.63
2022-08-04T11:58:40.316Z,101313.50
2022-08-04T12:01:29.256Z,101319.47
2022-08-04T12:04:06.926Z,101324.91
2022-08-04T12:07:04.676Z,101322.88
2022-08-04T12:09:53.629Z,101317.94
2022-08-04T12:13:02.302Z,101327.31
2022-08-04T12:16:22.307Z,101322.03
2022-08-04T12:18:57.945Z,101321.06
2022-08-04T12:21:35.411Z,101318.19
2022-08-04T12:24:08.774Z,101336.59
2022-08-04T12:26:43.218Z,101325.56
2022-08-04T12:29:19.242Z,101326.09
2022-08-04T12:31:54.209Z,101313.09
2022-08-04T12:34:32.921Z,101322.88
2022-08-04T12:37:24.413Z,101308.09
2022-08-04T12:40:28.477Z,101323.13
2022-08-04T12:42:55.970Z,101314.06
2022-08-04T12:45:24.634Z,101308.88
2022-08-04T12:47:56.701Z,101320.59
2022-08-04T12:50:25.213Z,101316.13
2022-08-04T12:53:01.989Z,101302.34
2022-08-04T12:55:33.971Z,101305.78
2022-08-04T12:58:04.001Z,101304.13
2022-08-04T13:00:41.176Z,101291.56
2022-08-04T13:03:18.320Z,101292.81
2022-08-04T13:05:53.790Z,101297.25
2022-08-04T13:08:23.015Z,101297.13
2022-08-04T13:10:57.495Z,101279.84
2022-08-04T13:13:27.257Z,101283.28
2022-08-04T13:16:08.491Z,101288.09
2022-08-04T13:18:41.248Z,101283.50
2022-08-04T13:21:21.052Z,101283.81
2022-08-04T13:24:09.892Z,101292.44
2022-08-04T13:26:55.747Z,101281.66
2022-08-04T13:29:58.804Z,101292.22
2022-08-04T13:32:20.726Z,101282.44
2022-08-04T13:34:55.492Z,101300.00
2022-08-04T13:37:27.555Z,101277.84
2022-08-04T13:39:57.752Z,101266.31
2022-08-04T13:42:27.565Z,101279.06
2022-08-04T13:45:01.313Z,101281.91
2022-08-04T13:47:39.020Z,101269.03
2022-08-04T13:50:16.144Z,101269.53
2022-08-04T13:52:45.776Z,101278.25
2022-08-04T13:55:25.365Z,101264.06
2022-08-04T13:58:05.989Z,101258.88
2022-08-04T14:00:46.654Z,101265.44
2022-08-04T14:03:27.269Z,101264.50
2022-08-04T14:06:25.510Z,101262.75
2022-08-04T14:09:01.410Z,101258.06
2022-08-04T14:12:10.505Z,101259.31
2022-08-04T14:14:32.171Z,101260.44
2022-08-04T14:17:03.766Z,101256.44
2022-08-04T14:19:52.190Z,101254.09
2022-08-04T14:22:40.595Z,101253.53
2022-08-04T14:25:16.836Z,101241.97
2022-08-04T14:27:51.476Z,101245.53
2022-08-04T14:30:32.616Z,101247.41
2022-08-04T14:34:03.050Z,101250.19
2022-08-04T14:36:04.096Z,101240.84
2022-08-04T14:38:58.369Z,101244.91
2022-08-04T14:41:31.923Z,101234.19
2022-08-04T14:44:02.369Z,101234.78
2022-08-04T14:46:36.615Z,101229.84
2022-08-04T14:49:13.734Z,101235.78
2022-08-04T14:51:59.807Z,101223.63
2022-08-04T14:54:33.403Z,101230.63
2022-08-04T14:57:08.335Z,101231.16
2022-08-04T14:59:59.384Z,101216.13
2022-08-04T15:02:32.531Z,101223.81
2022-08-04T15:06:00.989Z,101227.63
2022-08-04T15:07:50.806Z,101216.78
2022-08-04T15:10:18.524Z,101219.63
2022-08-04T15:12:46.016Z,101226.13
2022-08-04T15:15:35.455Z,101223.25
2022-08-04T15:18:01.086Z,101225.88
2022-08-04T15:20:32.026Z,101222.31
2022-08-04T15:23:10.477Z,101219.13
2022-08-04T15:25:56.055Z,101216.50
2022-08-04T15:28:27.543Z,101228.50
2022-08-04T15:31:01.217Z,101220.88
2022-08-04T15:33:34.049Z,101221.72
2022-08-04T15:36:13.604Z,101219.69
2022-08-04T15:38:50.720Z,101221.16
2022-08-04T15:41:32.286Z,101222.84
2022-08-04T15:44:30.905Z,101224.13
2022-08-04T15:47:04.131Z,101215.84
2022-08-04T15:49:31.863Z,101231.19
2022-08-04T15:52:04.508Z,101227.59
2022-08-04T15:54:42.599Z,101229.44
2022-08-04T15:58:00.304Z,101232.69
2022-08-04T16:00:28.646Z,101226.69
2022-08-04T16:02:56.128Z,101227.09
2022-08-04T16:05:23.648Z,101232.78
2022-08-04T16:07:54.867Z,101224.19
2022-08-04T16:10:31.235Z,101230.19
2022-08-04T16:13:04.584Z,101226.38
2022-08-04T16:16:03.102Z,101227.72
2022-08-04T16:18:33.307Z,101235.34
2022-08-04T16:21:07.892Z,101235.97
2022-08-04T16:23:55.960Z,101232.56
2022-08-04T16:26:42.322Z,101236.97
2022-08-04T16:29:34.886Z,101231.38
2022-08-04T16:32:05.341Z,101228.47
2022-08-04T16:34:54.486Z,101232.66
2022-08-04T16:37:38.323Z,101229.78
2022-08-04T16:40:36.565Z,101224.50
2022-08-04T16:43:16.068Z,101232.19
2022-08-04T16:46:19.933Z,101223.03
2022-08-04T16:49:22.011Z,101218.22
2022-08-04T16:51:55.256Z,101223.13
2022-08-04T16:54:25.781Z,101220.28
2022-08-04T16:56:55.888Z,101215.34
2022-08-04T16:59:24.462Z,101216.06
2022-08-04T17:01:55.623Z,101214.25
2022-08-04T17:04:33.868Z,101218.91
2022-08-04T17:07:12.901Z,101215.81
2022-08-04T17:09:51.535Z,101216.50
2022-08-04T17:12:23.255Z,101213.03
2022-08-04T17:14:52.041Z,101211.28
2022-08-04T17:17:24.158Z,101206.44
2022-08-04T17:20:02.112Z,101205.41
2022-08-04T17:22:29.950Z,101205.94
2022-08-04T17:25:00.055Z,101195.56
2022-08-04T17:28:08.410Z,101206.63
2022-08-04T17:30:33.468Z,101210.59
2022-08-04T17:33:01.138Z,101208.53
2022-08-04T17:35:38.534Z,101206.94
2022-08-04T17:38:06.477Z,101210.75
2022-08-04T17:40:34.032Z,101216.47
2022-08-04T17:44:03.015Z,101212.31
2022-08-04T17:46:30.155Z,101212.75
2022-08-04T17:49:08.332Z,101222.00
2022-08-04T17:52:06.344Z,101223.03
2022-08-04T17:54:40.548Z,101220.22
2022-08-04T17:57:21.376Z,101219.41
2022-08-04T17:59:56.969Z,101230.13
2022-08-04T18:02:31.816Z,101214.91
2022-08-04T18:05:06.888Z,101222.00
2022-08-04T18:08:34.855Z,101226.28
2022-08-04T18:10:55.452Z,101228.66
2022-08-04T18:13:28.373Z,101227.78
2022-08-04T18:16:21.999Z,101231.41
2022-08-04T18:19:18.956Z,101226.97
2022-08-04T18:22:00.045Z,101242.16
2022-08-04T18:24:35.274Z,101242.34
2022-08-04T18:27:26.311Z,101251.59
2022-08-04T18:30:34.597Z,101244.94
2022-08-04T18:33:16.839Z,101254.56
2022-08-04T18:36:33.077Z,101257.69
2022-08-04T18:38:24.353Z,101259.88
2022-08-04T18:40:55.460Z,101262.31
2022-08-04T18:43:28.766Z,101275.44
2022-08-04T18:46:14.449Z,101270.28
2022-08-04T18:51:35.238Z,101271.28
2022-08-04T18:54:08.861Z,101279.97
2022-08-04T18:56:40.189Z,101279.56
2022-08-04T18:59:27.410Z,101276.34
2022-08-04T19:02:12.739Z,101279.75
2022-08-04T19:04:45.080Z,101282.81
2022-08-04T19:07:33.703Z,101284.63
2022-08-04T19:10:04.737Z,101284.94
2022-08-04T19:12:34.231Z,101297.78
2022-08-04T19:15:08.764Z,101297.75
2022-08-04T19:17:53.520Z,101293.72
2022-08-04T19:20:29.425Z,101295.56
2022-08-04T19:24:10.638Z,101299.94
2022-08-04T19:26:01.289Z,101308.16
2022-08-04T19:28:35.156Z,101312.72
2022-08-04T19:31:06.833Z,101316.56
2022-08-04T19:33:58.419Z,101327.91
2022-08-04T19:36:28.564Z,101324.09
2022-08-04T19:39:01.842Z,101322.88
2022-08-04T19:42:04.595Z,101334.44
2022-08-04T19:44:24.195Z,101337.75
2022-08-04T19:46:51.591Z,101332.63
2022-08-04T19:50:03.056Z,101344.44
2022-08-04T19:52:10.310Z,101339.81
2022-08-04T19:54:40.880Z,101339.78
2022-08-04T19:59:55.869Z,101345.91
2022-08-04T20:02:22.906Z,101349.06
2022-08-04T20:04:52.230Z,101352.34
2022-08-04T20:07:19.334Z,101355.84
2022-08-04T20:09:53.718Z,101352.41
2022-08-04T20:12:22.781Z,101352.03
2022-08-04T20:14:51.880Z,101355.72
2022-08-04T20:17:22.526Z,101362.13
2022-08-04T20:20:10.323Z,101368.06
2022-08-04T20:22:51.890Z,101361.16
2022-08-04T20:25:36.289Z,101362.56
2022-08-04T20:28:05.675Z,101378.63
2022-08-04T20:30:36.131Z,101363.00
2022-08-04T20:33:06.797Z,101372.47
2022-08-04T20:36:04.738Z,101371.94
2022-08-04T20:38:33.766Z,101363.38
2022-08-04T20:41:02.455Z,101367.47
2022-08-04T20:43:31.399Z,101361.34
2022-08-04T20:45:59.628Z,101364.88
2022-08-04T20:48:33.529Z,101356.28
2022-08-04T20:51:01.698Z,101366.09
2022-08-04T20:53:46.503Z,101367.84
2022-08-04T20:56:19.119Z,101360.84
2022-08-04T20:58:58.044Z,101374.28
2022-08-04T21:01:29.408Z,101363.59
2022-08-04T21:04:28.028Z,101363.16
2022-08-04T21:06:57.775Z,101368.44
2022-08-04T21:09:38.061Z,101370.25
2022-08-04T21:12:26.802Z,101368.50
2022-08-04T21:15:13.746Z,101365.28
2022-08-04T21:17:56.829Z,101370.00
2022-08-04T21:20:31.613Z,101375.47
2022-08-04T21:23:02.259Z,101378.47
2022-08-04T21:25:32.659Z,101373.84
2022-08-04T21:28:11.671Z,101374.38
2022-08-04T21:30:52.849Z,101371.41
2022-08-04T21:33:23.243Z,101374.97
2022-08-04T21:35:53.949Z,101376.00
2022-08-04T21:38:28.061Z,101368.38
2022-08-04T21:40:57.644Z,101367.50
2022-08-04T21:43:28.783Z,101371.88
2022-08-04T21:46:04.642Z,101364.91
2022-08-04T21:48:34.690Z,101369.88
2022-08-04T21:52:00.597Z,101377.47
2022-08-04T21:54:17.303Z,101382.34
2022-08-04T21:56:50.900Z,101380.59
2022-08-04T21:59:23.549Z,101377.38
2022-08-04T22:01:58.228Z,101374.63
2022-08-04T22:04:28.024Z,101376.69
2022-08-04T22:06:55.340Z,101374.50
2022-08-04T22:09:23.002Z,101366.28
2022-08-04T22:11:52.140Z,101362.44
2022-08-04T22:14:27.383Z,101360.19
2022-08-04T22:16:59.022Z,101366.56
2022-08-04T22:19:54.922Z,101359.59
2022-08-04T22:22:26.157Z,101368.16
2022-08-04T22:24:58.691Z,101368.31
2022-08-04T22:27:47.737Z,101371.78
2022-08-04T22:30:24.091Z,101367.56
2022-08-04T22:32:51.299Z,101363.16
2022-08-04T22:35:33.331Z,101376.84
2022-08-04T22:38:24.233Z,101372.00
2022-08-04T22:41:08.902Z,101371.75
2022-08-04T22:43:37.700Z,101363.81
2022-08-04T22:46:12.238Z,101368.06
2022-08-04T22:48:43.435Z,101372.97
2022-08-04T22:51:13.004Z,101376.19
2022-08-04T22:53:48.948Z,101373.31
2022-08-04T22:56:37.414Z,101377.28
2022-08-04T22:59:10.888Z,101388.34
2022-08-04T23:01:59.855Z,101373.13
2022-08-04T23:04:33.003Z,101380.84
2022-08-04T23:07:05.303Z,101380.72
2022-08-04T23:09:50.021Z,101380.72
2022-08-04T23:12:25.933Z,101374.09
2022-08-04T23:14:59.206Z,101373.25
2022-08-04T23:17:28.121Z,101382.59
2022-08-04T23:19:59.930Z,101380.00
2022-08-04T23:22:41.231Z,101374.66
2022-08-04T23:25:15.096Z,101381.84
2022-08-04T23:27:50.705Z,101374.44
2022-08-04T23:30:30.157Z,101368.78
2022-08-04T23:32:58.270Z,101367.78
2022-08-04T23:35:25.978Z,101365.19
2022-08-04T23:37:59.802Z,101351.78
2022-08-04T23:40:50.025Z,101354.97
2022-08-04T23:43:18.367Z,101348.56
2022-08-04T23:46:04.059Z,101341.38
2022-08-04T23:48:34.284Z,101332.44
2022-08-04T23:51:14.527Z,101331.59
2022-08-04T23:54:01.574Z,101329.41
2022-08-04T23:56:30.340Z,101322.59
2022-08-04T23:59:04.419Z,101321.66
